createdAt,value
2019-05-21T00:02:23.718Z,25.95
2019-05-21T00:04:56.016Z,25.95
2019-05-21T00:07:28.393Z,25.93
2019-05-21T00:10:00.898Z,25.92
2019-05-21T00:12:33.001Z,25.90
2019-05-21T00:15:05.696Z,25.87
2019-05-21T00:17:38.027Z,25.81
2019-05-21T00:20:10.864Z,25.80
2019-05-21T00:22:43.210Z,25.78
2019-05-21T00:25:17.281Z,25.76
2019-05-21T00:27:49.354Z,25.74
2019-05-21T00:31:13.959Z,25.74
2019-05-21T00:34:43.863Z,25.73
2019-05-21T00:38:04.324Z,25.68
2019-05-21T00:41:28.982Z,25.62
2019-05-21T00:44:01.869Z,25.58
2019-05-21T00:46:34.452Z,25.53
2019-05-21T00:49:06.720Z,25.51
2019-05-21T00:51:38.934Z,25.52
2019-05-21T00:54:11.922Z,25.49
2019-05-21T00:56:44.132Z,25.51
2019-05-21T00:59:18.218Z,25.49
2019-05-21T01:01:51.058Z,25.49
2019-05-21T01:04:23.301Z,25.47
2019-05-21T01:06:56.034Z,25.45
2019-05-21T01:09:28.506Z,25.47
2019-05-21T01:12:04.349Z,25.49
2019-05-21T01:14:36.603Z,25.49
2019-05-21T01:17:08.891Z,25.50
2019-05-21T01:19:41.125Z,25.51
2019-05-21T01:22:13.509Z,25.50
2019-05-21T01:24:46.575Z,25.49
2019-05-21T01:27:19.237Z,25.50
2019-05-21T01:29:51.571Z,25.49
2019-05-21T01:32:23.915Z,25.48
2019-05-21T01:34:56.233Z,25.47
2019-05-21T01:37:28.456Z,25.48
2019-05-21T01:40:00.774Z,25.52
2019-05-21T01:42:32.974Z,25.56
2019-05-21T01:45:05.177Z,25.60
2019-05-21T01:47:37.559Z,25.62
2019-05-21T01:50:10.096Z,25.62
2019-05-21T01:52:42.361Z,25.64
2019-05-21T01:55:14.534Z,25.62
2019-05-21T01:57:46.852Z,25.64
2019-05-21T02:00:19.143Z,25.61
2019-05-21T02:02:51.386Z,25.60
2019-05-21T02:05:32.717Z,25.59
2019-05-21T02:07:57.908Z,25.58
2019-05-21T02:10:30.209Z,25.57
2019-05-21T02:13:02.448Z,25.55
2019-05-21T02:15:34.896Z,25.54
2019-05-21T02:18:07.114Z,25.54
2019-05-21T02:20:39.458Z,25.55
2019-05-21T02:23:11.744Z,25.56
2019-05-21T02:25:44.270Z,25.57
2019-05-21T02:28:16.385Z,25.58
2019-05-21T02:30:48.562Z,25.57
2019-05-21T02:33:20.968Z,25.56
2019-05-21T02:35:54.888Z,25.53
2019-05-21T02:38:27.337Z,25.50
2019-05-21T02:40:59.714Z,25.46
2019-05-21T02:43:32.648Z,25.40
2019-05-21T02:46:04.910Z,25.35
2019-05-21T02:48:37.394Z,25.29
2019-05-21T02:51:09.518Z,25.24
2019-05-21T02:53:42.033Z,25.23
2019-05-21T02:56:14.543Z,25.23
2019-05-21T02:58:46.835Z,25.24
2019-05-21T03:01:31.730Z,25.21
2019-05-21T03:04:03.896Z,25.20
2019-05-21T03:06:36.151Z,25.13
2019-05-21T03:09:09.563Z,25.10
2019-05-21T03:11:41.839Z,25.07
2019-05-21T03:14:14.052Z,25.06
2019-05-21T03:16:46.345Z,25.04
2019-05-21T03:19:18.661Z,25.03
2019-05-21T03:21:50.846Z,25.03
2019-05-21T03:24:23.219Z,25.04
2019-05-21T03:26:55.393Z,25.03
2019-05-21T03:29:27.867Z,25.04
2019-05-21T03:32:00.020Z,25.02
2019-05-21T03:34:32.656Z,25.04
2019-05-21T03:37:04.818Z,25.05
2019-05-21T03:39:37.068Z,25.08
2019-05-21T03:42:09.272Z,25.11
2019-05-21T03:44:58.363Z,25.13
2019-05-21T03:47:15.475Z,25.16
2019-05-21T03:49:47.855Z,25.21
2019-05-21T03:52:20.101Z,25.26
2019-05-21T03:54:52.316Z,25.31
2019-05-21T03:57:24.510Z,25.35
2019-05-21T03:59:56.749Z,25.39
2019-05-21T04:02:30.012Z,25.42
2019-05-21T04:05:02.245Z,25.45
2019-05-21T04:07:34.431Z,25.47
2019-05-21T04:10:09.011Z,25.54
2019-05-21T04:12:41.120Z,25.59
2019-05-21T04:15:15.353Z,25.65
2019-05-21T04:17:56.744Z,25.70
2019-05-21T04:20:29.030Z,25.75
2019-05-21T04:23:01.481Z,25.83
2019-05-21T04:25:33.902Z,25.91
2019-05-21T04:28:06.356Z,25.97
2019-05-21T04:30:38.566Z,26.02
2019-05-21T04:33:11.213Z,26.10
2019-05-21T04:35:43.926Z,26.18
2019-05-21T04:38:16.187Z,26.26
2019-05-21T04:40:48.652Z,26.34
2019-05-21T04:43:21.157Z,26.43
2019-05-21T04:45:53.650Z,26.53
2019-05-21T04:48:25.993Z,26.65
2019-05-21T04:50:58.231Z,26.75
2019-05-21T04:53:30.482Z,26.87
2019-05-21T04:56:02.806Z,26.96
2019-05-21T04:58:34.916Z,27.15
2019-05-21T05:01:07.205Z,27.48
2019-05-21T05:03:39.441Z,27.72
2019-05-21T05:06:11.611Z,27.90
2019-05-21T05:08:44.077Z,28.07
2019-05-21T05:11:19.456Z,28.20
2019-05-21T05:13:52.017Z,28.41
2019-05-21T05:16:24.281Z,28.81
2019-05-21T05:18:56.498Z,29.38
2019-05-21T05:21:28.775Z,30.03
2019-05-21T05:24:01.019Z,30.67
2019-05-21T05:26:33.220Z,31.29
2019-05-21T05:29:05.623Z,31.85
2019-05-21T05:31:37.893Z,32.36
2019-05-21T05:34:10.102Z,32.82
2019-05-21T05:36:42.722Z,33.26
2019-05-21T05:39:14.867Z,33.63
2019-05-21T05:41:47.189Z,33.99
2019-05-21T05:44:19.379Z,34.22
2019-05-21T05:46:51.557Z,34.39
2019-05-21T05:49:29.448Z,34.58
2019-05-21T05:52:01.686Z,34.81
2019-05-21T05:54:34.197Z,35.05
2019-05-21T05:57:06.448Z,35.27
2019-05-21T05:59:38.810Z,35.52
2019-05-21T06:02:10.964Z,35.74
2019-05-21T06:04:43.350Z,35.93
2019-05-21T06:07:15.533Z,36.12
2019-05-21T06:09:47.754Z,36.29
2019-05-21T06:12:20.142Z,36.44
2019-05-21T06:14:52.475Z,36.56
2019-05-21T06:17:24.840Z,36.59
2019-05-21T06:19:57.332Z,36.59
2019-05-21T06:22:29.438Z,36.60
2019-05-21T06:25:01.895Z,36.64
2019-05-21T06:27:34.183Z,36.70
2019-05-21T06:30:06.955Z,36.77
2019-05-21T06:32:39.155Z,36.81
2019-05-21T06:35:11.347Z,36.77
2019-05-21T06:37:43.587Z,36.73
2019-05-21T06:40:16.124Z,36.65
2019-05-21T06:42:48.666Z,36.51
2019-05-21T06:45:21.804Z,36.34
2019-05-21T06:47:54.124Z,36.23
2019-05-21T06:50:26.268Z,36.06
2019-05-21T06:52:58.603Z,35.83
2019-05-21T06:55:30.907Z,35.65
2019-05-21T06:58:03.106Z,35.45
2019-05-21T07:00:38.458Z,35.25
2019-05-21T07:03:12.754Z,35.09
2019-05-21T07:05:58.120Z,34.82
2019-05-21T07:08:33.684Z,34.56
2019-05-21T07:10:53.087Z,34.29
2019-05-21T07:13:25.237Z,33.98
2019-05-21T07:15:58.699Z,33.74
2019-05-21T07:18:31.031Z,33.60
2019-05-21T07:21:03.220Z,33.48
2019-05-21T07:23:35.455Z,33.35
2019-05-21T07:26:07.821Z,33.27
2019-05-21T07:28:40.177Z,33.24
2019-05-21T07:31:12.442Z,33.21
2019-05-21T07:33:44.694Z,33.23
2019-05-21T07:36:17.194Z,33.27
2019-05-21T07:38:53.730Z,33.25
2019-05-21T07:41:23.189Z,33.20
2019-05-21T07:43:55.462Z,33.21
2019-05-21T07:46:27.678Z,33.24
2019-05-21T07:48:59.850Z,33.26
2019-05-21T07:51:32.135Z,33.26
2019-05-21T07:54:04.413Z,33.26
2019-05-21T07:56:36.681Z,33.18
2019-05-21T07:59:09.018Z,33.15
2019-05-21T08:01:41.205Z,33.16
2019-05-21T08:04:13.458Z,33.17
2019-05-21T08:06:45.796Z,33.26
2019-05-21T08:09:18.119Z,33.41
2019-05-21T08:11:50.538Z,33.57
2019-05-21T08:14:23.157Z,33.75
2019-05-21T08:16:58.661Z,33.86
2019-05-21T08:19:31.431Z,33.89
2019-05-21T08:22:03.871Z,33.87
2019-05-21T08:24:36.159Z,33.83
2019-05-21T08:27:08.537Z,33.69
2019-05-21T08:29:40.860Z,33.48
2019-05-21T08:32:13.079Z,33.21
2019-05-21T08:34:45.389Z,32.93
2019-05-21T08:37:17.596Z,32.63
2019-05-21T08:39:50.346Z,32.34
2019-05-21T08:42:22.562Z,32.09
2019-05-21T08:44:54.884Z,31.89
2019-05-21T08:47:27.278Z,31.74
2019-05-21T08:49:59.516Z,31.68
2019-05-21T08:52:31.754Z,31.65
2019-05-21T08:55:03.983Z,31.63
2019-05-21T08:57:36.305Z,31.60
2019-05-21T09:00:12.853Z,31.58
2019-05-21T09:02:45.092Z,31.57
2019-05-21T09:05:17.335Z,31.60
2019-05-21T09:07:53.472Z,31.63
2019-05-21T09:10:23.938Z,31.65
2019-05-21T09:12:56.252Z,31.64
2019-05-21T09:15:28.412Z,31.66
2019-05-21T09:18:00.636Z,31.71
2019-05-21T09:20:32.951Z,31.76
2019-05-21T09:23:05.746Z,31.84
2019-05-21T09:25:38.652Z,31.95
2019-05-21T09:28:10.778Z,31.99
2019-05-21T09:30:43.059Z,32.01
2019-05-21T09:33:15.505Z,32.04
2019-05-21T09:35:47.723Z,32.06
2019-05-21T09:38:20.010Z,32.10
2019-05-21T09:40:52.583Z,32.16
2019-05-21T09:43:24.855Z,32.14
2019-05-21T09:45:57.037Z,32.07
2019-05-21T09:48:29.282Z,32.03
2019-05-21T09:51:01.500Z,32.04
2019-05-21T09:53:33.932Z,32.05
2019-05-21T09:56:28.199Z,32.05
2019-05-21T09:59:02.403Z,32.00
2019-05-21T10:01:40.196Z,31.89
2019-05-21T10:04:12.404Z,31.85
2019-05-21T10:06:44.823Z,31.78
2019-05-21T10:09:18.593Z,31.69
2019-05-21T10:11:53.445Z,31.62
2019-05-21T10:14:25.571Z,31.57
2019-05-21T10:16:58.036Z,31.59
2019-05-21T10:19:30.300Z,31.60
2019-05-21T10:22:02.858Z,31.63
2019-05-21T10:24:35.287Z,31.64
2019-05-21T10:27:07.557Z,31.66
2019-05-21T10:29:42.709Z,31.69
2019-05-21T10:32:14.967Z,31.72
2019-05-21T10:34:47.141Z,31.69
2019-05-21T10:37:19.446Z,31.65
2019-05-21T10:39:51.719Z,31.62
2019-05-21T10:42:24.002Z,31.59
2019-05-21T10:44:56.221Z,31.57
2019-05-21T10:47:28.938Z,31.61
2019-05-21T10:50:01.222Z,31.62
2019-05-21T10:52:33.623Z,31.59
2019-05-21T10:55:06.088Z,31.57
2019-05-21T10:57:38.330Z,31.59
2019-05-21T11:00:14.001Z,31.56
2019-05-21T11:02:51.545Z,31.60
2019-05-21T11:05:35.899Z,31.64
2019-05-21T11:08:25.068Z,31.65
2019-05-21T11:10:42.684Z,31.69
2019-05-21T11:13:14.937Z,31.75
2019-05-21T11:15:47.192Z,31.86
2019-05-21T11:18:19.333Z,32.01
2019-05-21T11:20:51.925Z,32.09
2019-05-21T11:23:24.247Z,32.13
2019-05-21T11:25:56.543Z,32.18
2019-05-21T11:28:29.039Z,32.26
2019-05-21T11:31:01.670Z,32.31
2019-05-21T11:33:34.188Z,32.36
2019-05-21T11:36:06.702Z,32.39
2019-05-21T11:38:40.352Z,32.39
2019-05-21T11:41:13.249Z,32.40
2019-05-21T11:43:45.786Z,32.33
2019-05-21T11:46:18.038Z,32.27
2019-05-21T11:48:50.766Z,32.23
2019-05-21T11:51:23.339Z,32.21
2019-05-21T11:53:56.405Z,32.17
2019-05-21T11:56:28.852Z,32.12
2019-05-21T11:59:01.048Z,32.06
2019-05-21T12:01:33.395Z,32.02
2019-05-21T12:04:05.771Z,31.99
2019-05-21T12:06:37.895Z,31.96
2019-05-21T12:09:11.082Z,31.94
2019-05-21T12:11:43.227Z,31.89
2019-05-21T12:14:15.403Z,31.85
2019-05-21T12:16:47.685Z,31.82
2019-05-21T12:19:19.871Z,31.88
2019-05-21T12:21:52.134Z,31.95
2019-05-21T12:24:27.469Z,32.02
2019-05-21T12:26:58.310Z,32.08
2019-05-21T12:29:34.077Z,32.12
2019-05-21T12:32:04.804Z,32.13
2019-05-21T12:34:39.030Z,32.16
2019-05-21T12:37:10.955Z,32.22
2019-05-21T12:39:43.186Z,32.26
2019-05-21T12:42:16.126Z,32.31
2019-05-21T12:44:48.286Z,32.37
2019-05-21T12:47:20.854Z,32.37
2019-05-21T12:49:53.306Z,32.36
2019-05-21T12:52:25.592Z,32.34
2019-05-21T12:54:57.794Z,32.29
2019-05-21T12:57:30.114Z,32.23
2019-05-21T13:00:02.278Z,32.18
2019-05-21T13:02:34.554Z,32.17
2019-05-21T13:05:10.903Z,32.19
2019-05-21T13:07:41.229Z,32.20
2019-05-21T13:10:14.245Z,32.18
2019-05-21T13:12:46.474Z,32.15
2019-05-21T13:15:18.908Z,32.15
2019-05-21T13:17:51.453Z,32.17
2019-05-21T13:20:23.990Z,32.25
2019-05-21T13:22:57.646Z,32.29
2019-05-21T13:25:29.902Z,32.33
2019-05-21T13:28:02.207Z,32.36
2019-05-21T13:30:34.748Z,32.37
2019-05-21T13:33:07.228Z,32.35
2019-05-21T13:35:39.609Z,32.27
2019-05-21T13:38:13.547Z,32.22
2019-05-21T13:40:46.846Z,32.17
2019-05-21T13:43:21.158Z,32.10
2019-05-21T13:45:53.041Z,32.05
2019-05-21T13:48:25.438Z,32.03
2019-05-21T13:50:59.854Z,32.03
2019-05-21T13:53:32.064Z,32.05
2019-05-21T13:56:04.415Z,32.01
2019-05-21T13:58:36.644Z,31.97
2019-05-21T14:01:09.702Z,31.91
2019-05-21T14:03:41.919Z,31.87
2019-05-21T14:06:14.471Z,31.85
2019-05-21T14:08:46.779Z,31.82
2019-05-21T14:11:20.336Z,31.82
2019-05-21T14:13:52.663Z,31.82
2019-05-21T14:16:24.982Z,31.82
2019-05-21T14:18:57.215Z,31.80
2019-05-21T14:21:29.380Z,31.82
2019-05-21T14:24:01.670Z,31.82
2019-05-21T14:26:33.865Z,31.80
2019-05-21T14:29:06.385Z,31.80
2019-05-21T14:31:38.805Z,31.79
2019-05-21T14:34:11.053Z,31.79
2019-05-21T14:36:43.392Z,31.75
2019-05-21T14:39:17.750Z,31.70
2019-05-21T14:41:50.299Z,31.65
2019-05-21T14:44:22.525Z,31.60
2019-05-21T14:46:54.783Z,31.54
2019-05-21T14:49:27.045Z,31.50
2019-05-21T14:51:59.369Z,31.45
2019-05-21T14:54:33.909Z,31.41
2019-05-21T14:57:12.989Z,31.37
2019-05-21T14:59:45.747Z,31.34
2019-05-21T15:02:18.066Z,31.31
2019-05-21T15:04:50.805Z,31.28
2019-05-21T15:07:23.431Z,31.27
2019-05-21T15:09:55.818Z,31.28
2019-05-21T15:12:28.214Z,31.26
2019-05-21T15:15:00.368Z,31.28
2019-05-21T15:17:33.256Z,31.26
2019-05-21T15:20:09.305Z,31.27
2019-05-21T15:22:42.023Z,31.29
2019-05-21T15:25:14.317Z,31.28
2019-05-21T15:27:46.550Z,31.28
2019-05-21T15:30:18.766Z,31.25
2019-05-21T15:32:51.173Z,31.23
2019-05-21T15:35:23.537Z,31.22
2019-05-21T15:37:55.929Z,31.21
2019-05-21T15:40:28.429Z,31.19
2019-05-21T15:43:00.726Z,31.17
2019-05-21T15:45:33.111Z,31.16
2019-05-21T15:48:05.333Z,31.15
2019-05-21T15:50:37.461Z,31.15
2019-05-21T15:53:10.480Z,31.13
2019-05-21T15:55:42.932Z,31.10
2019-05-21T15:58:15.071Z,31.08
2019-05-21T16:00:47.358Z,31.05
2019-05-21T16:03:19.912Z,31.02
2019-05-21T16:05:52.464Z,30.99
2019-05-21T16:08:26.739Z,30.96
2019-05-21T16:11:00.991Z,30.90
2019-05-21T16:13:33.590Z,30.84
2019-05-21T16:16:05.936Z,30.79
2019-05-21T16:18:38.179Z,30.74
2019-05-21T16:21:10.515Z,30.69
2019-05-21T16:23:43.100Z,30.64
2019-05-21T16:26:15.725Z,30.59
2019-05-21T16:28:47.978Z,30.53
2019-05-21T16:31:20.286Z,30.49
2019-05-21T16:33:52.547Z,30.43
2019-05-21T16:36:24.833Z,30.39
2019-05-21T16:38:57.249Z,30.33
2019-05-21T16:41:43.480Z,30.28
2019-05-21T16:44:03.598Z,30.24
2019-05-21T16:46:36.308Z,30.20
2019-05-21T16:49:09.205Z,30.17
2019-05-21T16:51:43.564Z,30.14
2019-05-21T16:54:15.853Z,30.10
2019-05-21T16:56:49.825Z,30.07
2019-05-21T16:59:22.210Z,30.05
2019-05-21T17:01:54.968Z,30.03
2019-05-21T17:04:27.669Z,30.00
2019-05-21T17:07:00.139Z,29.98
2019-05-21T17:09:32.507Z,29.97
2019-05-21T17:12:05.575Z,29.95
2019-05-21T17:14:38.065Z,29.97
2019-05-21T17:17:10.510Z,29.95
2019-05-21T17:19:42.977Z,29.95
2019-05-21T17:22:15.196Z,29.95
2019-05-21T17:24:47.455Z,29.95
2019-05-21T17:27:19.611Z,29.93
2019-05-21T17:29:52.043Z,29.92
2019-05-21T17:32:24.313Z,29.91
2019-05-21T17:34:56.608Z,29.90
2019-05-21T17:37:28.948Z,29.89
2019-05-21T17:40:01.664Z,29.88
2019-05-21T17:42:34.166Z,29.86
2019-05-21T17:45:07.030Z,29.83
2019-05-21T17:47:39.385Z,29.81
2019-05-21T17:50:12.369Z,29.79
2019-05-21T17:52:45.071Z,29.78
2019-05-21T17:55:17.846Z,29.76
2019-05-21T17:57:50.258Z,29.74
2019-05-21T18:00:29.126Z,29.72
2019-05-21T18:03:03.814Z,29.70
2019-05-21T18:05:36.042Z,29.66
2019-05-21T18:08:08.417Z,29.62
2019-05-21T18:10:40.921Z,29.60
2019-05-21T18:13:13.733Z,29.56
2019-05-21T18:15:46.332Z,29.52
2019-05-21T18:18:18.955Z,29.49
2019-05-21T18:20:51.489Z,29.45
2019-05-21T18:23:23.710Z,29.43
2019-05-21T18:25:55.956Z,29.40
2019-05-21T18:28:28.358Z,29.38
2019-05-21T18:31:00.686Z,29.36
2019-05-21T18:33:32.899Z,29.32
2019-05-21T18:36:05.356Z,29.30
2019-05-21T18:38:37.875Z,29.28
2019-05-21T18:41:10.108Z,29.25
2019-05-21T18:43:42.951Z,29.21
2019-05-21T18:46:15.360Z,29.21
2019-05-21T18:48:47.694Z,29.18
2019-05-21T18:51:20.362Z,29.18
2019-05-21T18:53:52.765Z,29.17
2019-05-21T18:56:25.395Z,29.16
2019-05-21T18:58:58.500Z,29.15
2019-05-21T19:01:31.169Z,29.13
2019-05-21T19:04:03.568Z,29.11
2019-05-21T19:06:35.939Z,29.09
2019-05-21T19:09:10.310Z,29.07
2019-05-21T19:11:42.556Z,29.04
2019-05-21T19:14:14.790Z,29.02
2019-05-21T19:16:47.131Z,28.99
2019-05-21T19:19:20.923Z,28.97
2019-05-21T19:21:53.395Z,28.94
2019-05-21T19:24:25.651Z,28.91
2019-05-21T19:26:57.820Z,28.88
2019-05-21T19:29:30.172Z,28.86
2019-05-21T19:32:02.390Z,28.85
2019-05-21T19:34:34.657Z,28.83
2019-05-21T19:37:06.922Z,28.83
2019-05-21T19:39:39.400Z,28.81
2019-05-21T19:42:11.804Z,28.79
2019-05-21T19:44:44.080Z,28.76
2019-05-21T19:47:16.348Z,28.76
2019-05-21T19:49:48.644Z,28.74
2019-05-21T19:52:22.923Z,28.73
2019-05-21T19:54:55.251Z,28.71
2019-05-21T19:57:29.788Z,28.67
2019-05-21T20:00:02.393Z,28.65
2019-05-21T20:02:35.418Z,28.62
2019-05-21T20:05:08.633Z,28.59
2019-05-21T20:07:42.772Z,28.57
2019-05-21T20:10:16.155Z,28.54
2019-05-21T20:12:48.665Z,28.51
2019-05-21T20:15:22.398Z,28.48
2019-05-21T20:18:06.934Z,28.46
2019-05-21T20:20:30.468Z,28.44
2019-05-21T20:23:08.320Z,28.42
2019-05-21T20:25:53.789Z,28.40
2019-05-21T20:28:14.150Z,28.36
2019-05-21T20:30:47.222Z,28.34
2019-05-21T20:33:20.759Z,28.32
2019-05-21T20:35:54.051Z,28.28
2019-05-21T20:38:27.868Z,28.25
2019-05-21T20:41:01.103Z,28.22
2019-05-21T20:43:33.602Z,28.20
2019-05-21T20:46:07.868Z,28.18
2019-05-21T20:48:40.982Z,28.16
2019-05-21T20:51:13.684Z,28.14
2019-05-21T20:53:46.633Z,28.12
2019-05-21T20:56:19.187Z,28.09
2019-05-21T20:58:51.490Z,28.06
2019-05-21T21:01:25.882Z,28.05
2019-05-21T21:03:58.418Z,28.04
2019-05-21T21:06:35.280Z,28.04
2019-05-21T21:09:10.770Z,28.02
2019-05-21T21:11:43.501Z,27.99
2019-05-21T21:14:18.365Z,27.95
2019-05-21T21:16:50.868Z,27.93
2019-05-21T21:19:23.525Z,27.90
2019-05-21T21:21:56.047Z,27.87
2019-05-21T21:24:28.444Z,27.84
2019-05-21T21:27:00.895Z,27.83
2019-05-21T21:29:33.187Z,27.80
2019-05-21T21:32:05.914Z,27.78
2019-05-21T21:34:38.212Z,27.76
2019-05-21T21:37:10.783Z,27.75
2019-05-21T21:39:43.037Z,27.76
2019-05-21T21:42:16.251Z,27.77
2019-05-21T21:44:49.377Z,27.77
2019-05-21T21:47:22.546Z,27.77
2019-05-21T21:49:55.261Z,27.75
2019-05-21T21:52:28.315Z,27.75
2019-05-21T21:55:02.528Z,27.74
2019-05-21T21:57:34.816Z,27.73
2019-05-21T22:00:18.569Z,27.71
2019-05-21T22:02:51.310Z,27.70
2019-05-21T22:05:25.122Z,27.68
2019-05-21T22:07:58.089Z,27.68
2019-05-21T22:10:32.203Z,27.67
2019-05-21T22:13:05.226Z,27.67
2019-05-21T22:15:37.780Z,27.67
2019-05-21T22:18:10.510Z,27.66
2019-05-21T22:20:43.742Z,27.66
2019-05-21T22:23:16.368Z,27.66
2019-05-21T22:25:48.703Z,27.66
2019-05-21T22:28:21.969Z,27.66
2019-05-21T22:30:56.647Z,27.66
2019-05-21T22:33:29.319Z,27.66
2019-05-21T22:36:01.659Z,27.67
2019-05-21T22:38:33.945Z,27.66
2019-05-21T22:41:06.379Z,27.64
2019-05-21T22:43:39.216Z,27.63
2019-05-21T22:46:11.424Z,27.61
2019-05-21T22:48:43.607Z,27.60
2019-05-21T22:51:15.842Z,27.60
2019-05-21T22:53:48.149Z,27.60
2019-05-21T22:56:20.346Z,27.60
2019-05-21T22:58:52.760Z,27.58
2019-05-21T23:01:26.631Z,27.56
2019-05-21T23:03:59.547Z,27.56
2019-05-21T23:06:31.966Z,27.54
2019-05-21T23:09:05.796Z,27.52
2019-05-21T23:11:38.322Z,27.50
2019-05-21T23:14:10.854Z,27.47
2019-05-21T23:16:43.156Z,27.44
2019-05-21T23:19:16.535Z,27.39
2019-05-21T23:21:49.822Z,27.36
2019-05-21T23:24:24.053Z,27.32
2019-05-21T23:26:56.447Z,27.29
2019-05-21T23:29:28.985Z,27.27
2019-05-21T23:32:01.636Z,27.25
2019-05-21T23:34:34.866Z,27.23
2019-05-21T23:37:08.943Z,27.20
2019-05-21T23:39:42.614Z,27.18
2019-05-21T23:42:28.567Z,27.16
2019-05-21T23:44:49.582Z,27.14
2019-05-21T23:47:22.206Z,27.13
2019-05-21T23:49:55.065Z,27.13
2019-05-21T23:52:27.805Z,27.13
2019-05-21T23:55:00.950Z,27.13
2019-05-21T23:57:37.575Z,27.13
